sensor_id;sensor_type;location;lat;lon;timestamp;P1;durP1;ratioP1;P2;durP2;ratioP2
74793;SDS011;63320;50.768;6.724;2022-12-31T00:01:47;0.60;;;0.38;;
74793;SDS011;63320;50.768;6.724;2022-12-31T00:04:13;2.22;;;0.50;;
74793;SDS011;63320;50.768;6.724;2022-12-31T00:06:38;1.58;;;0.40;;
74793;SDS011;63320;50.768;6.724;2022-12-31T00:09:06;2.38;;;0.60;;
74793;SDS011;63320;50.768;6.724;2022-12-31T00:11:32;1.98;;;0.50;;
74793;SDS011;63320;50.768;6.724;2022-12-31T00:13:58;2.05;;;0.60;;
74793;SDS011;63320;50.768;6.724;2022-12-31T00:16:24;1.77;;;0.60;;
74793;SDS011;63320;50.768;6.724;2022-12-31T00:18:52;2.40;;;0.50;;
74793;SDS011;63320;50.768;6.724;2022-12-31T00:21:18;1.63;;;0.50;;
74793;SDS011;63320;50.768;6.724;2022-12-31T00:23:44;0.65;;;0.20;;
74793;SDS011;63320;50.768;6.724;2022-12-31T00:26:12;1.02;;;0.30;;
74793;SDS011;63320;50.768;6.724;2022-12-31T00:28:39;1.00;;;0.25;;
74793;SDS011;63320;50.768;6.724;2022-12-31T00:31:06;1.92;;;0.25;;
74793;SDS011;63320;50.768;6.724;2022-12-31T00:33:32;1.60;;;0.35;;
74793;SDS011;63320;50.768;6.724;2022-12-31T00:36:02;0.90;;;0.30;;
74793;SDS011;63320;50.768;6.724;2022-12-31T00:38:29;1.10;;;0.30;;
74793;SDS011;63320;50.768;6.724;2022-12-31T00:40:54;0.98;;;0.20;;
74793;SDS011;63320;50.768;6.724;2022-12-31T00:43:21;0.60;;;0.20;;
74793;SDS011;63320;50.768;6.724;2022-12-31T00:45:46;1.05;;;0.20;;
74793;SDS011;63320;50.768;6.724;2022-12-31T00:48:11;0.10;;;0.10;;
74793;SDS011;63320;50.768;6.724;2022-12-31T00:50:37;0.10;;;0.10;;
74793;SDS011;63320;50.768;6.724;2022-12-31T00:53:02;0.80;;;0.20;;
74793;SDS011;63320;50.768;6.724;2022-12-31T00:55:28;0.63;;;0.10;;
74793;SDS011;63320;50.768;6.724;2022-12-31T00:57:54;0.57;;;0.15;;
74793;SDS011;63320;50.768;6.724;2022-12-31T01:00:21;0.28;;;0.00;;
74793;SDS011;63320;50.768;6.724;2022-12-31T01:02:46;0.00;;;0.00;;
74793;SDS011;63320;50.768;6.724;2022-12-31T01:05:12;0.30;;;0.03;;
74793;SDS011;63320;50.768;6.724;2022-12-31T01:07:37;1.67;;;0.20;;
74793;SDS011;63320;50.768;6.724;2022-12-31T01:10:02;0.40;;;0.10;;
74793;SDS011;63320;50.768;6.724;2022-12-31T01:12:29;1.25;;;0.00;;
74793;SDS011;63320;50.768;6.724;2022-12-31T01:14:54;0.10;;;0.00;;
74793;SDS011;63320;50.768;6.724;2022-12-31T01:17:21;0.10;;;0.05;;
74793;SDS011;63320;50.768;6.724;2022-12-31T01:19:46;0.00;;;0.00;;
74793;SDS011;63320;50.768;6.724;2022-12-31T01:22:11;0.20;;;0.10;;
74793;SDS011;63320;50.768;6.724;2022-12-31T01:24:37;0.63;;;0.40;;
74793;SDS011;63320;50.768;6.724;2022-12-31T01:27:02;0.52;;;0.10;;
74793;SDS011;63320;50.768;6.724;2022-12-31T01:29:27;0.70;;;0.17;;
74793;SDS011;63320;50.768;6.724;2022-12-31T01:31:53;0.57;;;0.10;;
74793;SDS011;63320;50.768;6.724;2022-12-31T01:34:20;0.43;;;0.10;;
74793;SDS011;63320;50.768;6.724;2022-12-31T01:36:45;0.05;;;0.00;;
74793;SDS011;63320;50.768;6.724;2022-12-31T01:39:10;0.63;;;0.20;;
74793;SDS011;63320;50.768;6.724;2022-12-31T01:41:37;1.75;;;0.20;;
74793;SDS011;63320;50.768;6.724;2022-12-31T01:47:03;0.47;;;0.10;;
74793;SDS011;63320;50.768;6.724;2022-12-31T01:49:37;0.25;;;0.00;;
74793;SDS011;63320;50.768;6.724;2022-12-31T01:52:08;0.25;;;0.20;;
74793;SDS011;63320;50.768;6.724;2022-12-31T01:54:40;0.93;;;0.00;;
74793;SDS011;63320;50.768;6.724;2022-12-31T01:57:10;0.57;;;0.10;;
74793;SDS011;63320;50.768;6.724;2022-12-31T01:59:36;0.00;;;0.00;;
74793;SDS011;63320;50.768;6.724;2022-12-31T02:02:01;0.08;;;0.00;;
74793;SDS011;63320;50.768;6.724;2022-12-31T02:04:27;0.10;;;0.00;;
74793;SDS011;63320;50.768;6.724;2022-12-31T02:06:56;0.08;;;0.00;;
74793;SDS011;63320;50.768;6.724;2022-12-31T02:11:49;1.20;;;0.10;;
74793;SDS011;63320;50.768;6.724;2022-12-31T02:14:16;0.30;;;0.05;;
74793;SDS011;63320;50.768;6.724;2022-12-31T02:16:47;0.10;;;0.00;;
74793;SDS011;63320;50.768;6.724;2022-12-31T02:19:27;0.28;;;0.10;;
74793;SDS011;63320;50.768;6.724;2022-12-31T02:22:13;1.55;;;0.10;;
74793;SDS011;63320;50.768;6.724;2022-12-31T02:24:52;0.70;;;0.20;;
74793;SDS011;63320;50.768;6.724;2022-12-31T02:27:33;0.20;;;0.10;;
74793;SDS011;63320;50.768;6.724;2022-12-31T02:32:53;0.85;;;0.10;;
74793;SDS011;63320;50.768;6.724;2022-12-31T02:35:27;0.75;;;0.10;;
74793;SDS011;63320;50.768;6.724;2022-12-31T02:37:57;0.10;;;0.03;;
74793;SDS011;63320;50.768;6.724;2022-12-31T02:40:25;0.20;;;0.10;;
74793;SDS011;63320;50.768;6.724;2022-12-31T02:42:51;1.00;;;0.20;;
74793;SDS011;63320;50.768;6.724;2022-12-31T02:45:19;0.93;;;0.22;;
74793;SDS011;63320;50.768;6.724;2022-12-31T02:47:50;0.45;;;0.20;;
74793;SDS011;63320;50.768;6.724;2022-12-31T02:50:27;0.80;;;0.38;;
74793;SDS011;63320;50.768;6.724;2022-12-31T02:53:04;0.10;;;0.10;;
74793;SDS011;63320;50.768;6.724;2022-12-31T02:55:44;0.52;;;0.10;;
74793;SDS011;63320;50.768;6.724;2022-12-31T02:58:19;0.73;;;0.00;;
74793;SDS011;63320;50.768;6.724;2022-12-31T03:00:52;0.90;;;0.10;;
74793;SDS011;63320;50.768;6.724;2022-12-31T03:03:19;0.40;;;0.10;;
74793;SDS011;63320;50.768;6.724;2022-12-31T03:05:45;0.47;;;0.10;;
74793;SDS011;63320;50.768;6.724;2022-12-31T03:08:18;1.80;;;0.10;;
74793;SDS011;63320;50.768;6.724;2022-12-31T03:10:45;0.00;;;0.00;;
74793;SDS011;63320;50.768;6.724;2022-12-31T03:13:10;1.05;;;0.10;;
74793;SDS011;63320;50.768;6.724;2022-12-31T03:15:35;1.35;;;0.10;;
74793;SDS011;63320;50.768;6.724;2022-12-31T03:18:03;0.38;;;0.10;;
74793;SDS011;63320;50.768;6.724;2022-12-31T03:20:30;0.63;;;0.05;;
74793;SDS011;63320;50.768;6.724;2022-12-31T03:22:58;0.00;;;0.00;;
74793;SDS011;63320;50.768;6.724;2022-12-31T03:25:23;0.08;;;0.05;;
74793;SDS011;63320;50.768;6.724;2022-12-31T03:27:48;0.65;;;0.10;;
74793;SDS011;63320;50.768;6.724;2022-12-31T03:30:15;1.10;;;0.20;;
74793;SDS011;63320;50.768;6.724;2022-12-31T03:32:42;0.65;;;0.10;;
74793;SDS011;63320;50.768;6.724;2022-12-31T03:35:10;1.17;;;0.10;;
74793;SDS011;63320;50.768;6.724;2022-12-31T03:37:36;0.15;;;0.10;;
74793;SDS011;63320;50.768;6.724;2022-12-31T03:40:02;0.20;;;0.10;;
74793;SDS011;63320;50.768;6.724;2022-12-31T03:42:28;0.60;;;0.10;;
74793;SDS011;63320;50.768;6.724;2022-12-31T03:44:53;0.47;;;0.20;;
74793;SDS011;63320;50.768;6.724;2022-12-31T03:47:18;0.47;;;0.10;;
74793;SDS011;63320;50.768;6.724;2022-12-31T03:49:44;1.45;;;0.20;;
74793;SDS011;63320;50.768;6.724;2022-12-31T03:52:10;0.60;;;0.10;;
74793;SDS011;63320;50.768;6.724;2022-12-31T03:54:36;0.63;;;0.10;;
74793;SDS011;63320;50.768;6.724;2022-12-31T03:57:01;0.75;;;0.15;;
74793;SDS011;63320;50.768;6.724;2022-12-31T03:59:26;0.35;;;0.08;;
74793;SDS011;63320;50.768;6.724;2022-12-31T04:01:52;0.20;;;0.00;;
74793;SDS011;63320;50.768;6.724;2022-12-31T04:04:17;0.00;;;0.00;;
74793;SDS011;63320;50.768;6.724;2022-12-31T04:06:42;0.52;;;0.17;;
74793;SDS011;63320;50.768;6.724;2022-12-31T04:09:09;0.88;;;0.10;;
74793;SDS011;63320;50.768;6.724;2022-12-31T04:11:34;0.30;;;0.10;;
74793;SDS011;63320;50.768;6.724;2022-12-31T04:14:00;2.45;;;0.28;;
74793;SDS011;63320;50.768;6.724;2022-12-31T04:16:25;0.63;;;0.10;;
74793;SDS011;63320;50.768;6.724;2022-12-31T04:18:50;0.60;;;0.10;;
74793;SDS011;63320;50.768;6.724;2022-12-31T04:21:16;1.63;;;0.30;;
74793;SDS011;63320;50.768;6.724;2022-12-31T04:23:41;0.10;;;0.10;;
74793;SDS011;63320;50.768;6.724;2022-12-31T04:26:08;0.45;;;0.15;;
74793;SDS011;63320;50.768;6.724;2022-12-31T04:28:33;1.88;;;0.30;;
74793;SDS011;63320;50.768;6.724;2022-12-31T04:30:59;0.95;;;0.10;;
74793;SDS011;63320;50.768;6.724;2022-12-31T04:33:24;0.47;;;0.10;;
74793;SDS011;63320;50.768;6.724;2022-12-31T04:35:49;0.52;;;0.20;;
74793;SDS011;63320;50.768;6.724;2022-12-31T04:38:15;1.10;;;0.10;;
74793;SDS011;63320;50.768;6.724;2022-12-31T04:40:40;1.65;;;0.20;;
74793;SDS011;63320;50.768;6.724;2022-12-31T04:43:07;0.43;;;0.13;;
74793;SDS011;63320;50.768;6.724;2022-12-31T04:45:32;0.05;;;0.05;;
74793;SDS011;63320;50.768;6.724;2022-12-31T04:47:57;0.40;;;0.15;;
74793;SDS011;63320;50.768;6.724;2022-12-31T04:50:23;0.68;;;0.20;;
74793;SDS011;63320;50.768;6.724;2022-12-31T04:52:48;2.37;;;0.20;;
74793;SDS011;63320;50.768;6.724;2022-12-31T04:55:13;0.13;;;0.10;;
74793;SDS011;63320;50.768;6.724;2022-12-31T04:57:39;1.83;;;0.30;;
74793;SDS011;63320;50.768;6.724;2022-12-31T05:00:07;1.52;;;0.20;;
74793;SDS011;63320;50.768;6.724;2022-12-31T05:02:33;1.80;;;0.30;;
74793;SDS011;63320;50.768;6.724;2022-12-31T05:04:58;1.08;;;0.25;;
74793;SDS011;63320;50.768;6.724;2022-12-31T05:07:23;2.03;;;0.40;;
74793;SDS011;63320;50.768;6.724;2022-12-31T05:09:49;2.50;;;0.38;;
74793;SDS011;63320;50.768;6.724;2022-12-31T05:12:14;3.45;;;0.40;;
74793;SDS011;63320;50.768;6.724;2022-12-31T05:14:39;0.93;;;0.28;;
74793;SDS011;63320;50.768;6.724;2022-12-31T05:17:06;1.95;;;0.47;;
74793;SDS011;63320;50.768;6.724;2022-12-31T05:19:31;1.85;;;0.30;;
74793;SDS011;63320;50.768;6.724;2022-12-31T05:21:56;5.38;;;0.40;;
74793;SDS011;63320;50.768;6.724;2022-12-31T05:24:22;2.90;;;0.50;;
74793;SDS011;63320;50.768;6.724;2022-12-31T05:26:47;1.60;;;0.32;;
74793;SDS011;63320;50.768;6.724;2022-12-31T05:29:12;5.25;;;0.52;;
74793;SDS011;63320;50.768;6.724;2022-12-31T05:31:38;1.75;;;0.50;;
74793;SDS011;63320;50.768;6.724;2022-12-31T05:34:04;2.05;;;0.30;;
74793;SDS011;63320;50.768;6.724;2022-12-31T05:36:30;3.22;;;0.40;;
74793;SDS011;63320;50.768;6.724;2022-12-31T05:38:55;1.67;;;0.30;;
74793;SDS011;63320;50.768;6.724;2022-12-31T05:41:20;1.95;;;0.40;;
74793;SDS011;63320;50.768;6.724;2022-12-31T05:43:46;1.10;;;0.30;;
74793;SDS011;63320;50.768;6.724;2022-12-31T05:46:11;1.50;;;0.32;;
74793;SDS011;63320;50.768;6.724;2022-12-31T05:48:36;2.95;;;0.50;;
74793;SDS011;63320;50.768;6.724;2022-12-31T05:51:03;1.33;;;0.30;;
74793;SDS011;63320;50.768;6.724;2022-12-31T05:53:29;3.63;;;0.50;;
74793;SDS011;63320;50.768;6.724;2022-12-31T05:55:54;2.83;;;0.60;;
74793;SDS011;63320;50.768;6.724;2022-12-31T05:58:19;3.55;;;0.60;;
74793;SDS011;63320;50.768;6.724;2022-12-31T06:00:45;1.33;;;0.45;;
74793;SDS011;63320;50.768;6.724;2022-12-31T06:03:10;1.45;;;0.47;;
74793;SDS011;63320;50.768;6.724;2022-12-31T06:05:38;1.88;;;0.40;;
74793;SDS011;63320;50.768;6.724;2022-12-31T06:08:05;2.20;;;0.50;;
74793;SDS011;63320;50.768;6.724;2022-12-31T06:10:30;3.53;;;0.43;;
74793;SDS011;63320;50.768;6.724;2022-12-31T06:12:56;2.00;;;0.50;;
74793;SDS011;63320;50.768;6.724;2022-12-31T06:15:21;2.78;;;0.50;;
74793;SDS011;63320;50.768;6.724;2022-12-31T06:17:46;1.75;;;0.45;;
74793;SDS011;63320;50.768;6.724;2022-12-31T06:20:12;2.60;;;0.80;;
74793;SDS011;63320;50.768;6.724;2022-12-31T06:22:37;3.05;;;0.50;;
74793;SDS011;63320;50.768;6.724;2022-12-31T06:25:04;3.53;;;0.50;;
74793;SDS011;63320;50.768;6.724;2022-12-31T06:27:30;3.30;;;0.60;;
74793;SDS011;63320;50.768;6.724;2022-12-31T06:29:56;2.25;;;0.40;;
74793;SDS011;63320;50.768;6.724;2022-12-31T06:32:21;2.75;;;0.70;;
74793;SDS011;63320;50.768;6.724;2022-12-31T06:34:46;4.05;;;0.60;;
74793;SDS011;63320;50.768;6.724;2022-12-31T06:37:12;2.22;;;0.50;;
74793;SDS011;63320;50.768;6.724;2022-12-31T06:39:37;1.30;;;0.50;;
74793;SDS011;63320;50.768;6.724;2022-12-31T06:42:04;1.30;;;0.30;;
74793;SDS011;63320;50.768;6.724;2022-12-31T06:44:29;2.92;;;0.38;;
74793;SDS011;63320;50.768;6.724;2022-12-31T06:46:55;2.17;;;0.55;;
74793;SDS011;63320;50.768;6.724;2022-12-31T06:49:20;4.07;;;1.00;;
74793;SDS011;63320;50.768;6.724;2022-12-31T06:51:45;2.80;;;0.50;;
74793;SDS011;63320;50.768;6.724;2022-12-31T06:54:11;1.85;;;0.60;;
74793;SDS011;63320;50.768;6.724;2022-12-31T06:56:36;1.30;;;0.43;;
74793;SDS011;63320;50.768;6.724;2022-12-31T06:59:04;1.50;;;0.40;;
74793;SDS011;63320;50.768;6.724;2022-12-31T07:01:34;2.03;;;0.70;;
74793;SDS011;63320;50.768;6.724;2022-12-31T07:04:10;2.70;;;0.52;;
74793;SDS011;63320;50.768;6.724;2022-12-31T07:07:03;2.67;;;0.52;;
74793;SDS011;63320;50.768;6.724;2022-12-31T07:09:34;2.42;;;0.55;;
74793;SDS011;63320;50.768;6.724;2022-12-31T07:12:05;1.90;;;0.38;;
74793;SDS011;63320;50.768;6.724;2022-12-31T07:14:40;0.45;;;0.32;;
74793;SDS011;63320;50.768;6.724;2022-12-31T07:17:17;2.47;;;0.50;;
74793;SDS011;63320;50.768;6.724;2022-12-31T07:19:54;1.38;;;0.40;;
74793;SDS011;63320;50.768;6.724;2022-12-31T07:22:24;1.58;;;0.50;;
74793;SDS011;63320;50.768;6.724;2022-12-31T07:24:50;2.53;;;0.40;;
74793;SDS011;63320;50.768;6.724;2022-12-31T07:27:27;3.13;;;0.40;;
74793;SDS011;63320;50.768;6.724;2022-12-31T07:30:05;0.85;;;0.32;;
74793;SDS011;63320;50.768;6.724;2022-12-31T07:32:41;3.72;;;0.70;;
74793;SDS011;63320;50.768;6.724;2022-12-31T07:35:24;1.90;;;0.50;;
74793;SDS011;63320;50.768;6.724;2022-12-31T07:37:58;2.10;;;0.60;;
74793;SDS011;63320;50.768;6.724;2022-12-31T07:40:31;2.78;;;0.60;;
74793;SDS011;63320;50.768;6.724;2022-12-31T07:43:03;1.38;;;0.60;;
74793;SDS011;63320;50.768;6.724;2022-12-31T07:45:39;2.95;;;0.50;;
74793;SDS011;63320;50.768;6.724;2022-12-31T07:48:13;2.35;;;0.52;;
74793;SDS011;63320;50.768;6.724;2022-12-31T07:50:46;3.67;;;0.68;;
74793;SDS011;63320;50.768;6.724;2022-12-31T07:53:11;2.85;;;0.57;;
74793;SDS011;63320;50.768;6.724;2022-12-31T07:55:37;3.28;;;0.90;;
74793;SDS011;63320;50.768;6.724;2022-12-31T07:58:05;3.50;;;0.73;;
74793;SDS011;63320;50.768;6.724;2022-12-31T08:00:43;3.75;;;0.60;;
74793;SDS011;63320;50.768;6.724;2022-12-31T08:03:11;1.75;;;0.70;;
74793;SDS011;63320;50.768;6.724;2022-12-31T08:05:48;5.97;;;0.80;;
74793;SDS011;63320;50.768;6.724;2022-12-31T08:08:21;3.30;;;0.77;;
74793;SDS011;63320;50.768;6.724;2022-12-31T08:11:02;3.42;;;0.85;;
74793;SDS011;63320;50.768;6.724;2022-12-31T08:13:36;2.60;;;0.70;;
74793;SDS011;63320;50.768;6.724;2022-12-31T08:16:04;2.00;;;0.70;;
74793;SDS011;63320;50.768;6.724;2022-12-31T08:18:34;2.47;;;0.70;;
74793;SDS011;63320;50.768;6.724;2022-12-31T08:21:03;4.22;;;0.85;;
74793;SDS011;63320;50.768;6.724;2022-12-31T08:23:38;3.90;;;0.70;;
74793;SDS011;63320;50.768;6.724;2022-12-31T08:26:14;2.90;;;0.80;;
74793;SDS011;63320;50.768;6.724;2022-12-31T08:28:54;1.75;;;0.60;;
74793;SDS011;63320;50.768;6.724;2022-12-31T08:31:28;5.55;;;1.10;;
74793;SDS011;63320;50.768;6.724;2022-12-31T08:34:03;5.32;;;0.90;;
74793;SDS011;63320;50.768;6.724;2022-12-31T08:36:39;4.57;;;1.20;;
74793;SDS011;63320;50.768;6.724;2022-12-31T08:39:12;3.10;;;0.80;;
74793;SDS011;63320;50.768;6.724;2022-12-31T08:41:44;2.85;;;0.70;;
74793;SDS011;63320;50.768;6.724;2022-12-31T08:44:13;5.68;;;1.10;;
74793;SDS011;63320;50.768;6.724;2022-12-31T08:46:46;4.47;;;0.73;;
74793;SDS011;63320;50.768;6.724;2022-12-31T08:49:16;2.97;;;0.63;;
74793;SDS011;63320;50.768;6.724;2022-12-31T08:51:42;4.55;;;0.82;;
74793;SDS011;63320;50.768;6.724;2022-12-31T08:54:09;2.40;;;0.65;;
74793;SDS011;63320;50.768;6.724;2022-12-31T08:56:36;2.25;;;0.60;;
74793;SDS011;63320;50.768;6.724;2022-12-31T08:59:14;3.92;;;0.93;;
74793;SDS011;63320;50.768;6.724;2022-12-31T09:01:54;3.22;;;1.23;;
74793;SDS011;63320;50.768;6.724;2022-12-31T09:04:40;5.25;;;1.58;;
74793;SDS011;63320;50.768;6.724;2022-12-31T09:07:15;4.03;;;0.80;;
74793;SDS011;63320;50.768;6.724;2022-12-31T09:09:49;4.88;;;0.90;;
74793;SDS011;63320;50.768;6.724;2022-12-31T09:12:23;4.35;;;1.42;;
74793;SDS011;63320;50.768;6.724;2022-12-31T09:14:56;2.65;;;0.65;;
74793;SDS011;63320;50.768;6.724;2022-12-31T09:17:32;4.00;;;0.82;;
74793;SDS011;63320;50.768;6.724;2022-12-31T09:20:11;3.65;;;0.80;;
74793;SDS011;63320;50.768;6.724;2022-12-31T09:22:39;5.75;;;1.02;;
74793;SDS011;63320;50.768;6.724;2022-12-31T09:25:04;4.60;;;0.93;;
74793;SDS011;63320;50.768;6.724;2022-12-31T09:27:32;5.28;;;0.82;;
74793;SDS011;63320;50.768;6.724;2022-12-31T09:30:06;4.15;;;0.75;;
74793;SDS011;63320;50.768;6.724;2022-12-31T09:32:38;3.30;;;0.80;;
74793;SDS011;63320;50.768;6.724;2022-12-31T09:35:11;2.75;;;1.00;;
74793;SDS011;63320;50.768;6.724;2022-12-31T09:37:44;2.58;;;0.63;;
74793;SDS011;63320;50.768;6.724;2022-12-31T09:40:22;4.35;;;0.80;;
74793;SDS011;63320;50.768;6.724;2022-12-31T09:45:59;4.25;;;0.70;;
74793;SDS011;63320;50.768;6.724;2022-12-31T09:51:48;5.13;;;0.82;;
74793;SDS011;63320;50.768;6.724;2022-12-31T09:54:25;1.63;;;0.60;;
74793;SDS011;63320;50.768;6.724;2022-12-31T10:00:03;2.95;;;0.60;;
74793;SDS011;63320;50.768;6.724;2022-12-31T10:02:40;3.22;;;0.68;;
74793;SDS011;63320;50.768;6.724;2022-12-31T10:05:23;3.90;;;0.70;;
74793;SDS011;63320;50.768;6.724;2022-12-31T10:08:05;2.67;;;0.65;;
74793;SDS011;63320;50.768;6.724;2022-12-31T10:10:39;3.30;;;0.70;;
74793;SDS011;63320;50.768;6.724;2022-12-31T10:13:15;6.28;;;0.93;;
74793;SDS011;63320;50.768;6.724;2022-12-31T10:16:04;8.05;;;0.90;;
74793;SDS011;63320;50.768;6.724;2022-12-31T10:18:47;3.55;;;0.60;;
74793;SDS011;63320;50.768;6.724;2022-12-31T10:21:27;5.50;;;0.85;;
74793;SDS011;63320;50.768;6.724;2022-12-31T10:24:14;3.22;;;0.60;;
74793;SDS011;63320;50.768;6.724;2022-12-31T10:27:03;2.85;;;0.70;;
74793;SDS011;63320;50.768;6.724;2022-12-31T10:29:43;4.63;;;0.65;;
74793;SDS011;63320;50.768;6.724;2022-12-31T10:32:15;4.07;;;0.60;;
74793;SDS011;63320;50.768;6.724;2022-12-31T10:34:46;1.17;;;0.60;;
74793;SDS011;63320;50.768;6.724;2022-12-31T10:37:26;2.53;;;0.80;;
74793;SDS011;63320;50.768;6.724;2022-12-31T10:45:44;3.83;;;0.60;;
74793;SDS011;63320;50.768;6.724;2022-12-31T10:48:40;3.85;;;0.55;;
74793;SDS011;63320;50.768;6.724;2022-12-31T10:51:43;4.15;;;0.80;;
74793;SDS011;63320;50.768;6.724;2022-12-31T10:54:32;3.80;;;0.60;;
74793;SDS011;63320;50.768;6.724;2022-12-31T10:57:47;4.28;;;0.70;;
74793;SDS011;63320;50.768;6.724;2022-12-31T11:00:22;3.45;;;0.63;;
74793;SDS011;63320;50.768;6.724;2022-12-31T11:12:15;2.78;;;0.70;;
74793;SDS011;63320;50.768;6.724;2022-12-31T11:15:06;3.88;;;0.80;;
74793;SDS011;63320;50.768;6.724;2022-12-31T11:17:42;5.22;;;1.10;;
74793;SDS011;63320;50.768;6.724;2022-12-31T11:20:25;4.68;;;1.15;;
74793;SDS011;63320;50.768;6.724;2022-12-31T11:23:01;5.22;;;1.00;;
74793;SDS011;63320;50.768;6.724;2022-12-31T11:25:39;3.20;;;0.70;;
74793;SDS011;63320;50.768;6.724;2022-12-31T11:28:26;4.40;;;1.00;;
74793;SDS011;63320;50.768;6.724;2022-12-31T11:31:08;4.57;;;1.13;;
74793;SDS011;63320;50.768;6.724;2022-12-31T11:33:43;4.85;;;1.20;;
74793;SDS011;63320;50.768;6.724;2022-12-31T11:36:23;5.75;;;1.20;;
74793;SDS011;63320;50.768;6.724;2022-12-31T11:38:59;4.55;;;0.90;;
74793;SDS011;63320;50.768;6.724;2022-12-31T11:41:41;3.78;;;0.95;;
74793;SDS011;63320;50.768;6.724;2022-12-31T11:44:15;6.18;;;1.10;;
74793;SDS011;63320;50.768;6.724;2022-12-31T11:46:54;3.97;;;0.93;;
74793;SDS011;63320;50.768;6.724;2022-12-31T11:49:33;4.82;;;1.10;;
74793;SDS011;63320;50.768;6.724;2022-12-31T11:52:22;5.07;;;1.30;;
74793;SDS011;63320;50.768;6.724;2022-12-31T11:55:06;4.32;;;1.20;;
74793;SDS011;63320;50.768;6.724;2022-12-31T11:57:41;4.45;;;1.00;;
74793;SDS011;63320;50.768;6.724;2022-12-31T12:00:13;4.95;;;1.02;;
74793;SDS011;63320;50.768;6.724;2022-12-31T12:02:43;5.57;;;1.33;;
74793;SDS011;63320;50.768;6.724;2022-12-31T12:05:12;5.97;;;1.10;;
74793;SDS011;63320;50.768;6.724;2022-12-31T12:07:39;3.33;;;1.00;;
74793;SDS011;63320;50.768;6.724;2022-12-31T12:10:13;6.88;;;1.70;;
74793;SDS011;63320;50.768;6.724;2022-12-31T12:12:47;4.75;;;1.60;;
74793;SDS011;63320;50.768;6.724;2022-12-31T12:15:15;4.55;;;1.30;;
74793;SDS011;63320;50.768;6.724;2022-12-31T12:17:47;4.10;;;1.20;;
74793;SDS011;63320;50.768;6.724;2022-12-31T12:20:17;4.50;;;1.13;;
74793;SDS011;63320;50.768;6.724;2022-12-31T12:22:49;5.82;;;1.13;;
74793;SDS011;63320;50.768;6.724;2022-12-31T12:25:16;3.20;;;1.00;;
74793;SDS011;63320;50.768;6.724;2022-12-31T12:27:44;3.63;;;0.90;;
74793;SDS011;63320;50.768;6.724;2022-12-31T12:30:09;5.90;;;1.10;;
74793;SDS011;63320;50.768;6.724;2022-12-31T12:32:36;5.60;;;1.02;;
74793;SDS011;63320;50.768;6.724;2022-12-31T12:35:12;4.55;;;1.02;;
74793;SDS011;63320;50.768;6.724;2022-12-31T12:37:39;5.60;;;1.10;;
74793;SDS011;63320;50.768;6.724;2022-12-31T12:40:05;4.10;;;0.82;;
74793;SDS011;63320;50.768;6.724;2022-12-31T12:42:44;3.72;;;0.85;;
74793;SDS011;63320;50.768;6.724;2022-12-31T12:45:13;5.65;;;1.02;;
74793;SDS011;63320;50.768;6.724;2022-12-31T12:47:41;6.07;;;1.17;;
74793;SDS011;63320;50.768;6.724;2022-12-31T12:50:09;4.45;;;1.13;;
74793;SDS011;63320;50.768;6.724;2022-12-31T12:52:52;5.35;;;1.30;;
74793;SDS011;63320;50.768;6.724;2022-12-31T12:55:24;4.47;;;1.13;;
74793;SDS011;63320;50.768;6.724;2022-12-31T12:57:57;6.38;;;1.20;;
74793;SDS011;63320;50.768;6.724;2022-12-31T13:00:29;6.75;;;1.10;;
74793;SDS011;63320;50.768;6.724;2022-12-31T13:03:08;2.95;;;0.95;;
74793;SDS011;63320;50.768;6.724;2022-12-31T13:05:50;3.15;;;0.90;;
74793;SDS011;63320;50.768;6.724;2022-12-31T13:08:25;5.78;;;1.10;;
74793;SDS011;63320;50.768;6.724;2022-12-31T13:11:02;5.90;;;1.20;;
74793;SDS011;63320;50.768;6.724;2022-12-31T13:13:42;4.80;;;1.25;;
74793;SDS011;63320;50.768;6.724;2022-12-31T13:16:18;4.22;;;1.30;;
74793;SDS011;63320;50.768;6.724;2022-12-31T13:18:53;4.22;;;1.00;;
74793;SDS011;63320;50.768;6.724;2022-12-31T13:24:19;5.72;;;1.23;;
74793;SDS011;63320;50.768;6.724;2022-12-31T13:26:53;5.97;;;1.20;;
74793;SDS011;63320;50.768;6.724;2022-12-31T13:29:24;3.20;;;0.90;;
74793;SDS011;63320;50.768;6.724;2022-12-31T13:31:53;5.53;;;1.20;;
74793;SDS011;63320;50.768;6.724;2022-12-31T13:34:22;5.28;;;1.20;;
74793;SDS011;63320;50.768;6.724;2022-12-31T13:36:53;6.20;;;1.40;;
74793;SDS011;63320;50.768;6.724;2022-12-31T13:39:23;4.82;;;1.40;;
74793;SDS011;63320;50.768;6.724;2022-12-31T13:41:54;3.92;;;1.13;;
74793;SDS011;63320;50.768;6.724;2022-12-31T13:44:23;4.53;;;1.30;;
74793;SDS011;63320;50.768;6.724;2022-12-31T13:46:54;4.55;;;1.00;;
74793;SDS011;63320;50.768;6.724;2022-12-31T13:49:23;3.22;;;1.00;;
74793;SDS011;63320;50.768;6.724;2022-12-31T13:51:55;7.50;;;1.33;;
74793;SDS011;63320;50.768;6.724;2022-12-31T13:54:27;4.38;;;1.10;;
74793;SDS011;63320;50.768;6.724;2022-12-31T13:57:00;6.13;;;1.23;;
74793;SDS011;63320;50.768;6.724;2022-12-31T13:59:29;5.05;;;1.10;;
74793;SDS011;63320;50.768;6.724;2022-12-31T14:01:59;4.55;;;1.05;;
74793;SDS011;63320;50.768;6.724;2022-12-31T14:04:33;4.18;;;1.20;;
74793;SDS011;63320;50.768;6.724;2022-12-31T14:07:06;6.47;;;1.17;;
74793;SDS011;63320;50.768;6.724;2022-12-31T14:09:36;5.97;;;1.50;;
74793;SDS011;63320;50.768;6.724;2022-12-31T14:12:08;5.60;;;1.30;;
74793;SDS011;63320;50.768;6.724;2022-12-31T14:14:45;6.10;;;1.58;;
74793;SDS011;63320;50.768;6.724;2022-12-31T14:17:18;5.28;;;1.45;;
74793;SDS011;63320;50.768;6.724;2022-12-31T14:19:51;4.88;;;1.58;;
74793;SDS011;63320;50.768;6.724;2022-12-31T14:22:28;6.80;;;1.40;;
74793;SDS011;63320;50.768;6.724;2022-12-31T14:24:59;4.88;;;1.30;;
74793;SDS011;63320;50.768;6.724;2022-12-31T14:27:27;5.47;;;1.30;;
74793;SDS011;63320;50.768;6.724;2022-12-31T14:29:56;5.07;;;1.50;;
74793;SDS011;63320;50.768;6.724;2022-12-31T14:32:29;4.95;;;1.10;;
74793;SDS011;63320;50.768;6.724;2022-12-31T14:38:04;4.90;;;1.35;;
74793;SDS011;63320;50.768;6.724;2022-12-31T14:40:40;4.18;;;1.30;;
74793;SDS011;63320;50.768;6.724;2022-12-31T14:43:15;5.00;;;1.30;;
74793;SDS011;63320;50.768;6.724;2022-12-31T14:45:49;4.88;;;1.30;;
74793;SDS011;63320;50.768;6.724;2022-12-31T14:48:27;6.32;;;1.40;;
74793;SDS011;63320;50.768;6.724;2022-12-31T14:51:02;5.00;;;1.50;;
74793;SDS011;63320;50.768;6.724;2022-12-31T14:53:30;5.15;;;1.35;;
74793;SDS011;63320;50.768;6.724;2022-12-31T14:55:56;4.28;;;1.13;;
74793;SDS011;63320;50.768;6.724;2022-12-31T14:58:27;6.35;;;1.50;;
74793;SDS011;63320;50.768;6.724;2022-12-31T15:00:55;4.15;;;1.08;;
74793;SDS011;63320;50.768;6.724;2022-12-31T15:03:24;7.03;;;1.17;;
74793;SDS011;63320;50.768;6.724;2022-12-31T15:06:00;5.70;;;1.10;;
74793;SDS011;63320;50.768;6.724;2022-12-31T15:08:38;5.53;;;1.30;;
74793;SDS011;63320;50.768;6.724;2022-12-31T15:11:15;4.30;;;1.10;;
74793;SDS011;63320;50.768;6.724;2022-12-31T15:13:52;5.93;;;1.27;;
74793;SDS011;63320;50.768;6.724;2022-12-31T15:16:35;6.78;;;1.50;;
74793;SDS011;63320;50.768;6.724;2022-12-31T15:22:10;5.07;;;1.40;;
74793;SDS011;63320;50.768;6.724;2022-12-31T15:24:54;5.03;;;1.20;;
74793;SDS011;63320;50.768;6.724;2022-12-31T15:27:26;4.78;;;1.05;;
74793;SDS011;63320;50.768;6.724;2022-12-31T15:29:56;6.22;;;1.30;;
74793;SDS011;63320;50.768;6.724;2022-12-31T15:32:24;5.30;;;1.20;;
74793;SDS011;63320;50.768;6.724;2022-12-31T15:34:59;3.88;;;0.93;;
74793;SDS011;63320;50.768;6.724;2022-12-31T15:37:26;4.80;;;1.60;;
74793;SDS011;63320;50.768;6.724;2022-12-31T15:40:04;4.65;;;1.10;;
74793;SDS011;63320;50.768;6.724;2022-12-31T15:42:41;4.70;;;1.25;;
74793;SDS011;63320;50.768;6.724;2022-12-31T15:45:11;4.10;;;1.55;;
74793;SDS011;63320;50.768;6.724;2022-12-31T15:47:40;5.68;;;1.83;;
74793;SDS011;63320;50.768;6.724;2022-12-31T15:50:11;7.35;;;1.70;;
74793;SDS011;63320;50.768;6.724;2022-12-31T15:52:41;5.72;;;1.70;;